createdAt,value
2018-08-12T00:00:38.097Z,0
2018-08-12T00:01:18.577Z,0
2018-08-12T00:01:59.231Z,0
2018-08-12T00:02:39.673Z,0
2018-08-12T00:03:20.176Z,0
2018-08-12T00:04:00.644Z,0
2018-08-12T00:04:41.158Z,0
2018-08-12T00:05:21.639Z,0
2018-08-12T00:06:02.110Z,0
2018-08-12T00:06:42.637Z,0
2018-08-12T00:07:23.133Z,0
2018-08-12T00:08:03.631Z,0
2018-08-12T00:08:44.149Z,0
2018-08-12T00:09:24.631Z,0
2018-08-12T00:10:05.181Z,0
2018-08-12T00:10:45.697Z,0
2018-08-12T00:11:26.134Z,0
2018-08-12T00:12:06.640Z,0
2018-08-12T00:12:47.110Z,0
2018-08-12T00:13:27.605Z,0
2018-08-12T00:14:08.094Z,0
2018-08-12T00:14:48.632Z,0
2018-08-12T00:15:29.135Z,0
2018-08-12T00:16:09.594Z,0
2018-08-12T00:16:50.093Z,0
2018-08-12T00:17:30.599Z,0
2018-08-12T00:18:11.096Z,0
2018-08-12T00:18:51.618Z,0
2018-08-12T00:19:32.116Z,0
2018-08-12T00:20:12.630Z,0
2018-08-12T00:20:53.108Z,0
2018-08-12T00:21:33.616Z,0
2018-08-12T00:22:14.111Z,0
2018-08-12T00:22:54.617Z,0
2018-08-12T00:23:35.135Z,0
2018-08-12T00:24:15.750Z,0
2018-08-12T00:24:56.247Z,0
2018-08-12T00:25:36.736Z,0
2018-08-12T00:26:17.231Z,0
2018-08-12T00:26:57.874Z,0
2018-08-12T00:27:38.374Z,0
2018-08-12T00:28:18.881Z,0
2018-08-12T00:28:59.409Z,0
2018-08-12T00:29:39.912Z,0
2018-08-12T00:30:20.397Z,0
2018-08-12T00:31:00.908Z,0
2018-08-12T00:31:41.408Z,0
2018-08-12T00:32:21.911Z,0
2018-08-12T00:33:02.407Z,0
2018-08-12T00:33:42.890Z,0
2018-08-12T00:34:23.394Z,0
2018-08-12T00:35:03.936Z,0
2018-08-12T00:35:44.425Z,0
2018-08-12T00:36:24.905Z,0
2018-08-12T00:37:05.441Z,0
2018-08-12T00:37:45.916Z,0
2018-08-12T00:38:26.430Z,0
2018-08-12T00:39:06.942Z,0
2018-08-12T00:39:47.441Z,0
2018-08-12T00:40:27.988Z,0
2018-08-12T00:41:08.473Z,0
2018-08-12T00:41:48.955Z,0
2018-08-12T00:42:29.516Z,0
2018-08-12T00:43:09.946Z,0
2018-08-12T00:43:50.438Z,0
2018-08-12T00:44:30.972Z,0
2018-08-12T00:45:11.412Z,0
2018-08-12T00:45:51.906Z,0
2018-08-12T00:46:32.454Z,0
2018-08-12T00:47:12.934Z,0
2018-08-12T00:47:53.458Z,0
2018-08-12T00:48:33.971Z,0
2018-08-12T00:49:14.465Z,0
2018-08-12T00:49:54.944Z,0
2018-08-12T00:50:35.466Z,0
2018-08-12T00:51:15.933Z,0
2018-08-12T00:51:56.434Z,0
2018-08-12T00:52:36.945Z,0
2018-08-12T00:53:17.451Z,0
2018-08-12T00:53:57.929Z,0
2018-08-12T00:54:38.446Z,0
2018-08-12T00:55:18.951Z,0
2018-08-12T00:55:59.470Z,0
2018-08-12T00:56:39.970Z,0
2018-08-12T00:57:20.438Z,0
2018-08-12T00:58:00.918Z,0
2018-08-12T00:58:41.422Z,0
2018-08-12T00:59:21.893Z,0
2018-08-12T01:00:02.365Z,0
2018-08-12T01:00:42.852Z,0
2018-08-12T01:01:23.341Z,0
2018-08-12T01:02:03.845Z,0
2018-08-12T01:02:44.354Z,0
2018-08-12T01:03:24.883Z,0
2018-08-12T01:04:05.544Z,0
2018-08-12T01:04:46.071Z,0
2018-08-12T01:05:26.592Z,0
2018-08-12T01:06:07.041Z,0
2018-08-12T01:06:47.617Z,0
2018-08-12T01:07:28.060Z,0
2018-08-12T01:08:08.599Z,0
2018-08-12T01:08:49.100Z,0
2018-08-12T01:09:29.631Z,0
2018-08-12T01:10:10.114Z,0
2018-08-12T01:10:50.732Z,0
2018-08-12T01:11:31.177Z,0
2018-08-12T01:12:11.691Z,0
2018-08-12T01:14:24.955Z,0
2018-08-12T01:15:05.474Z,0
2018-08-12T01:15:45.957Z,0
2018-08-12T01:16:26.470Z,0
2018-08-12T01:17:06.976Z,0
2018-08-12T01:17:47.452Z,0
2018-08-12T01:18:27.960Z,0
2018-08-12T01:19:08.493Z,0
2018-08-12T01:19:48.952Z,0
2018-08-12T01:20:29.449Z,0
2018-08-12T01:21:09.944Z,0
2018-08-12T01:21:50.458Z,0
2018-08-12T01:22:30.996Z,0
2018-08-12T01:23:11.423Z,0
2018-08-12T01:23:52.021Z,0
2018-08-12T01:24:32.351Z,0
2018-08-12T01:25:12.855Z,0
2018-08-12T01:25:53.325Z,0
2018-08-12T01:26:33.856Z,0
2018-08-12T01:27:14.367Z,0
2018-08-12T01:27:54.835Z,0
2018-08-12T01:28:35.296Z,0
2018-08-12T01:29:15.798Z,0
2018-08-12T01:29:56.304Z,0
2018-08-12T01:30:36.782Z,0
2018-08-12T01:31:17.314Z,0
2018-08-12T01:31:57.790Z,0
2018-08-12T01:32:38.315Z,0
2018-08-12T01:33:18.812Z,0
2018-08-12T01:33:59.298Z,0
2018-08-12T01:34:39.860Z,0
2018-08-12T01:35:20.355Z,0
2018-08-12T01:36:00.894Z,0
2018-08-12T01:36:41.373Z,0
2018-08-12T01:37:22.778Z,0
2018-08-12T01:38:03.274Z,0
2018-08-12T01:38:43.746Z,0
2018-08-12T01:39:24.238Z,0
2018-08-12T01:40:04.774Z,0
2018-08-12T01:40:45.274Z,0
2018-08-12T01:41:25.813Z,0
2018-08-12T01:42:06.273Z,0
2018-08-12T01:42:46.778Z,0
2018-08-12T01:43:27.213Z,0
2018-08-12T01:44:07.726Z,0
2018-08-12T01:44:48.204Z,0
2018-08-12T01:45:28.716Z,0
2018-08-12T01:46:09.163Z,0
2018-08-12T01:46:49.640Z,0
2018-08-12T01:47:30.147Z,0
2018-08-12T01:48:10.633Z,0
2018-08-12T01:48:51.210Z,0
2018-08-12T01:49:31.744Z,0
2018-08-12T01:50:12.271Z,0
2018-08-12T01:50:52.744Z,0
2018-08-12T01:51:33.245Z,0
2018-08-12T01:52:13.759Z,0
2018-08-12T01:52:54.195Z,0
2018-08-12T01:53:34.717Z,0
2018-08-12T01:54:15.327Z,0
2018-08-12T01:54:55.877Z,0
2018-08-12T01:55:36.366Z,0
2018-08-12T01:56:16.867Z,0
2018-08-12T01:56:57.322Z,0
2018-08-12T01:57:37.836Z,0
2018-08-12T01:58:18.393Z,0
2018-08-12T01:58:58.835Z,0
2018-08-12T01:59:39.356Z,0
2018-08-12T02:00:19.827Z,0
2018-08-12T02:01:00.342Z,0
2018-08-12T02:01:40.834Z,0
2018-08-12T02:02:21.307Z,0
2018-08-12T02:03:01.788Z,0
2018-08-12T02:03:42.389Z,0
2018-08-12T02:04:22.909Z,0
2018-08-12T02:05:03.408Z,0
2018-08-12T02:05:43.880Z,0
2018-08-12T02:06:24.375Z,0
2018-08-12T02:07:04.914Z,0
2018-08-12T02:07:45.490Z,0
2018-08-12T02:08:25.930Z,0
2018-08-12T02:09:06.498Z,0
2018-08-12T02:09:47.022Z,0
2018-08-12T02:10:27.506Z,0
2018-08-12T02:11:08.024Z,0
2018-08-12T02:11:48.568Z,0
2018-08-12T02:12:29.035Z,0
2018-08-12T02:13:09.528Z,0
2018-08-12T02:13:50.029Z,0
2018-08-12T02:14:30.599Z,0
2018-08-12T02:15:11.061Z,0
2018-08-12T02:15:51.558Z,0
2018-08-12T02:16:32.172Z,0
2018-08-12T02:17:12.601Z,0
2018-08-12T02:17:53.128Z,0
2018-08-12T02:18:33.606Z,0
2018-08-12T02:19:14.163Z,0
2018-08-12T02:19:54.693Z,0
2018-08-12T02:20:35.197Z,0
2018-08-12T02:21:15.689Z,0
2018-08-12T02:21:56.174Z,0
2018-08-12T02:22:36.675Z,0
2018-08-12T02:23:17.151Z,0
2018-08-12T02:23:57.663Z,0
2018-08-12T02:24:38.264Z,0
2018-08-12T02:25:18.789Z,0
2018-08-12T02:25:59.236Z,0
2018-08-12T02:26:39.753Z,0
2018-08-12T02:27:20.256Z,0
2018-08-12T02:28:00.806Z,0
2018-08-12T02:28:41.212Z,0
2018-08-12T02:29:21.736Z,0
2018-08-12T02:30:02.238Z,0
2018-08-12T02:30:42.773Z,0
2018-08-12T02:31:23.285Z,0
2018-08-12T02:32:03.784Z,0
2018-08-12T02:32:44.296Z,0
2018-08-12T02:33:24.765Z,0
2018-08-12T02:34:05.396Z,0
2018-08-12T02:34:45.864Z,0
2018-08-12T02:35:26.351Z,0
2018-08-12T02:36:06.861Z,0
2018-08-12T02:36:47.381Z,0
2018-08-12T02:37:27.874Z,0
2018-08-12T02:38:08.344Z,0
2018-08-12T02:38:48.828Z,0
2018-08-12T02:39:29.431Z,0
2018-08-12T02:40:09.844Z,0
2018-08-12T02:40:50.308Z,0
2018-08-12T02:41:30.801Z,0
2018-08-12T02:42:11.274Z,0
2018-08-12T02:42:51.953Z,0
2018-08-12T02:43:32.509Z,0
2018-08-12T02:44:12.955Z,0
2018-08-12T02:44:53.452Z,0
2018-08-12T02:45:33.940Z,0
2018-08-12T02:46:14.453Z,0
2018-08-12T02:46:54.962Z,0
2018-08-12T02:47:35.430Z,0
2018-08-12T02:48:15.936Z,0
2018-08-12T02:48:56.417Z,0
2018-08-12T02:49:36.952Z,0
2018-08-12T02:50:17.418Z,0
2018-08-12T02:50:57.945Z,0
2018-08-12T02:51:38.476Z,0
2018-08-12T02:52:18.919Z,0
2018-08-12T02:52:59.399Z,0
2018-08-12T02:53:39.879Z,0
2018-08-12T02:54:20.370Z,0
2018-08-12T02:55:00.856Z,0
2018-08-12T02:55:41.367Z,0
2018-08-12T02:56:21.881Z,0
2018-08-12T02:57:02.328Z,0
2018-08-12T02:57:42.862Z,0
2018-08-12T02:58:23.420Z,0
2018-08-12T02:59:03.979Z,0
2018-08-12T02:59:44.426Z,0
2018-08-12T03:00:24.942Z,0
2018-08-12T03:01:05.424Z,0
2018-08-12T03:01:45.924Z,0
2018-08-12T03:04:15.384Z,0
2018-08-12T03:04:55.897Z,0
2018-08-12T03:05:36.375Z,0
2018-08-12T03:06:16.865Z,0
2018-08-12T03:06:57.344Z,0
2018-08-12T03:07:37.823Z,0
2018-08-12T03:08:18.391Z,0
2018-08-12T03:08:58.873Z,0
2018-08-12T03:09:39.343Z,0
2018-08-12T03:10:19.814Z,0
2018-08-12T03:11:00.292Z,0
2018-08-12T03:11:40.746Z,0
2018-08-12T03:12:21.270Z,0
2018-08-12T03:13:01.706Z,0
2018-08-12T03:13:42.228Z,0
2018-08-12T03:14:22.711Z,0
2018-08-12T03:15:03.144Z,0
2018-08-12T03:15:43.644Z,0
2018-08-12T03:16:24.166Z,0
2018-08-12T03:17:04.650Z,0
2018-08-12T03:17:45.169Z,0
2018-08-12T03:18:25.666Z,0
2018-08-12T03:19:06.113Z,0
2018-08-12T03:19:46.656Z,0
2018-08-12T03:20:27.115Z,0
2018-08-12T03:21:07.645Z,0
2018-08-12T03:21:48.138Z,0
2018-08-12T03:22:28.666Z,0
2018-08-12T03:23:09.147Z,0
2018-08-12T03:23:49.579Z,0
2018-08-12T03:24:30.115Z,0
2018-08-12T03:25:10.553Z,0
2018-08-12T03:25:51.045Z,0
2018-08-12T03:26:31.545Z,0
2018-08-12T03:27:12.040Z,0
2018-08-12T03:27:52.533Z,0
2018-08-12T03:28:33.023Z,0
2018-08-12T03:29:13.498Z,0
2018-08-12T03:29:54.063Z,0
2018-08-12T03:30:34.532Z,0
2018-08-12T03:31:14.994Z,0
2018-08-12T03:31:55.603Z,0
2018-08-12T03:32:36.096Z,0
2018-08-12T03:33:16.563Z,0
2018-08-12T03:33:57.091Z,0
2018-08-12T03:34:37.596Z,0
2018-08-12T03:35:18.073Z,0
2018-08-12T03:35:58.622Z,0
2018-08-12T03:36:39.086Z,0
2018-08-12T03:37:19.552Z,0
2018-08-12T03:38:00.033Z,0
2018-08-12T03:38:40.538Z,0
2018-08-12T03:39:21.031Z,4
2018-08-12T03:40:01.554Z,4
2018-08-12T03:40:42.009Z,4
2018-08-12T03:41:22.534Z,0
2018-08-12T03:42:03.017Z,0
2018-08-12T03:42:43.598Z,4
2018-08-12T03:43:24.071Z,4
2018-08-12T03:44:04.557Z,4
2018-08-12T03:44:45.056Z,4
2018-08-12T03:45:25.536Z,4
2018-08-12T03:46:06.027Z,4
2018-08-12T03:46:46.546Z,4
2018-08-12T03:47:27.041Z,8
2018-08-12T03:48:07.625Z,4
2018-08-12T03:48:48.116Z,8
2018-08-12T03:49:28.542Z,4
2018-08-12T03:50:09.183Z,8
2018-08-12T03:50:49.682Z,8
2018-08-12T03:51:30.188Z,12
2018-08-12T03:52:10.706Z,12
2018-08-12T03:52:51.196Z,12
2018-08-12T03:53:31.659Z,16
2018-08-12T03:54:12.153Z,16
2018-08-12T03:54:52.913Z,20
2018-08-12T03:55:33.473Z,20
2018-08-12T03:56:13.949Z,20
2018-08-12T03:56:54.483Z,24
2018-08-12T03:57:35.027Z,28
2018-08-12T03:58:15.635Z,28
2018-08-12T03:58:56.120Z,32
2018-08-12T03:59:36.589Z,36
2018-08-12T04:00:17.111Z,40
2018-08-12T04:00:57.556Z,44
2018-08-12T04:01:38.026Z,48
2018-08-12T04:02:18.573Z,48
2018-08-12T04:02:59.020Z,56
2018-08-12T04:03:39.538Z,60
2018-08-12T04:04:20.012Z,64
2018-08-12T04:05:00.496Z,72
2018-08-12T04:05:41.016Z,80
2018-08-12T04:06:21.513Z,84
2018-08-12T04:07:01.990Z,92
2018-08-12T04:07:42.501Z,100
2018-08-12T04:08:23.030Z,108
2018-08-12T04:09:03.514Z,116
2018-08-12T04:09:44.017Z,124
2018-08-12T04:10:24.504Z,132
2018-08-12T04:11:05.031Z,140
2018-08-12T04:11:45.507Z,156
2018-08-12T04:12:26.069Z,164
2018-08-12T04:13:06.515Z,172
2018-08-12T04:13:47.023Z,184
2018-08-12T04:14:27.485Z,200
2018-08-12T04:15:08.034Z,212
2018-08-12T04:15:48.564Z,228
2018-08-12T04:16:29.016Z,240
2018-08-12T04:18:27.220Z,280
2018-08-12T04:19:07.736Z,296
2018-08-12T04:19:48.255Z,316
2018-08-12T04:20:28.760Z,332
2018-08-12T04:21:09.268Z,344
2018-08-12T04:21:49.779Z,364
2018-08-12T04:22:30.246Z,380
2018-08-12T04:23:10.761Z,396
2018-08-12T04:23:51.250Z,412
2018-08-12T04:24:31.753Z,432
2018-08-12T04:25:12.257Z,448
2018-08-12T04:25:52.763Z,464
2018-08-12T04:26:33.291Z,484
2018-08-12T04:27:13.806Z,500
2018-08-12T04:27:54.270Z,520
2018-08-12T04:28:34.771Z,536
2018-08-12T04:29:15.272Z,556
2018-08-12T04:29:55.751Z,576
2018-08-12T04:30:36.339Z,596
2018-08-12T04:31:17.576Z,616
2018-08-12T04:31:57.367Z,636
2018-08-12T04:32:38.016Z,652
2018-08-12T04:33:18.480Z,672
2018-08-12T04:33:59.017Z,688
2018-08-12T04:34:39.466Z,708
2018-08-12T04:35:19.945Z,728
2018-08-12T04:36:00.431Z,744
2018-08-12T04:36:40.924Z,764
2018-08-12T04:37:21.424Z,780
2018-08-12T04:38:01.851Z,796
2018-08-12T04:38:42.410Z,812
2018-08-12T04:39:22.842Z,836
2018-08-12T04:40:03.330Z,860
2018-08-12T04:40:43.849Z,880
2018-08-12T04:41:24.337Z,896
2018-08-12T04:42:04.822Z,916
2018-08-12T04:42:45.334Z,936
2018-08-12T04:43:25.845Z,956
2018-08-12T04:44:06.355Z,972
2018-08-12T04:44:46.860Z,988
2018-08-12T04:45:27.376Z,1004
2018-08-12T04:46:07.912Z,1020
2018-08-12T04:46:48.365Z,1040
2018-08-12T04:47:28.849Z,1056
2018-08-12T04:48:09.450Z,1076
2018-08-12T04:48:49.963Z,1100
2018-08-12T04:49:30.431Z,1116
2018-08-12T04:50:10.904Z,1136
2018-08-12T04:50:51.386Z,1152
2018-08-12T04:51:31.846Z,1172
2018-08-12T04:52:12.317Z,1188
2018-08-12T04:52:52.845Z,1204
2018-08-12T04:53:33.471Z,1220
2018-08-12T04:54:13.876Z,1240
2018-08-12T04:54:54.345Z,1256
2018-08-12T04:55:34.862Z,1276
2018-08-12T04:56:16.245Z,1300
2018-08-12T04:56:56.765Z,1316
2018-08-12T04:57:37.268Z,1328
2018-08-12T04:58:17.782Z,1340
2018-08-12T04:58:58.338Z,1352
2018-08-12T04:59:38.820Z,1368
2018-08-12T05:00:19.379Z,1384
2018-08-12T05:00:59.880Z,1400
2018-08-12T05:01:40.333Z,1404
2018-08-12T05:02:20.815Z,1420
2018-08-12T05:03:01.336Z,1436
2018-08-12T05:03:41.844Z,1456
2018-08-12T05:04:22.307Z,1480
2018-08-12T05:05:02.805Z,1520
2018-08-12T05:05:43.305Z,1520
2018-08-12T05:06:23.848Z,1504
2018-08-12T05:07:04.296Z,1520
2018-08-12T05:07:44.804Z,1536
2018-08-12T05:08:25.283Z,1548
2018-08-12T05:09:05.778Z,1556
2018-08-12T05:09:46.250Z,1576
2018-08-12T05:10:26.734Z,1584
2018-08-12T05:11:07.262Z,1596
2018-08-12T05:11:47.775Z,1604
2018-08-12T05:12:28.280Z,1612
2018-08-12T05:13:08.798Z,1624
2018-08-12T05:13:49.330Z,1636
2018-08-12T05:14:29.792Z,1644
2018-08-12T05:15:10.278Z,1656
2018-08-12T05:15:50.777Z,1668
2018-08-12T05:16:31.270Z,1676
2018-08-12T05:17:11.798Z,1684
2018-08-12T05:17:52.284Z,1696
2018-08-12T05:18:32.773Z,1704
2018-08-12T05:19:13.323Z,1716
2018-08-12T05:19:53.788Z,1724
2018-08-12T05:20:34.276Z,1732
2018-08-12T05:21:14.783Z,1744
2018-08-12T05:21:55.259Z,1748
2018-08-12T05:22:35.759Z,1756
2018-08-12T05:23:16.283Z,1764
2018-08-12T05:23:56.797Z,1772
2018-08-12T05:24:37.317Z,1780
2018-08-12T05:25:17.858Z,1788
2018-08-12T05:25:58.284Z,1796
2018-08-12T05:26:38.850Z,1808
2018-08-12T05:27:19.274Z,1820
2018-08-12T05:27:59.774Z,1824
2018-08-12T05:28:40.249Z,1832
2018-08-12T05:29:20.743Z,1840
2018-08-12T05:31:34.120Z,1864
2018-08-12T05:32:14.721Z,1872
2018-08-12T05:32:55.188Z,1880
2018-08-12T05:33:35.700Z,1888
2018-08-12T05:34:16.162Z,1900
2018-08-12T05:34:56.637Z,1912
2018-08-12T05:35:37.137Z,1920
2018-08-12T05:36:17.648Z,1924
2018-08-12T05:36:58.121Z,1932
2018-08-12T05:37:38.678Z,1940
2018-08-12T05:38:19.148Z,1948
2018-08-12T05:38:59.610Z,1956
2018-08-12T05:39:40.133Z,1964
2018-08-12T05:40:20.623Z,1972
2018-08-12T05:41:01.146Z,1984
2018-08-12T05:41:41.662Z,1996
2018-08-12T05:42:22.172Z,2032
2018-08-12T05:43:02.655Z,2080
2018-08-12T05:43:43.161Z,2168
2018-08-12T05:44:23.630Z,2304
2018-08-12T05:45:04.126Z,2484
2018-08-12T05:45:44.635Z,2740
2018-08-12T05:46:25.169Z,3040
2018-08-12T05:47:05.675Z,3348
2018-08-12T05:47:46.163Z,3660
2018-08-12T05:48:26.675Z,3984
2018-08-12T05:49:07.194Z,4296
2018-08-12T05:49:47.647Z,4556
2018-08-12T05:50:28.169Z,4744
2018-08-12T05:51:08.705Z,4856
2018-08-12T05:51:49.132Z,4848
2018-08-12T05:52:29.620Z,4772
2018-08-12T05:53:10.126Z,4688
2018-08-12T05:53:50.859Z,4604
2018-08-12T05:54:31.147Z,4492
2018-08-12T05:55:11.617Z,4400
2018-08-12T05:55:52.110Z,4324
2018-08-12T05:56:32.647Z,4252
2018-08-12T05:57:13.158Z,4144
2018-08-12T05:57:56.299Z,3988
2018-08-12T05:58:40.269Z,3768
2018-08-12T05:59:20.859Z,3584
2018-08-12T06:00:01.404Z,3436
2018-08-12T06:02:35.093Z,3108
2018-08-12T06:03:15.574Z,3008
2018-08-12T06:03:56.075Z,2892
2018-08-12T06:04:36.576Z,2792
2018-08-12T06:05:17.062Z,2716
2018-08-12T06:05:57.580Z,2680
2018-08-12T06:06:38.101Z,2708
2018-08-12T06:07:18.580Z,2800
2018-08-12T06:07:59.045Z,2936
2018-08-12T06:08:39.621Z,3080
2018-08-12T06:09:20.110Z,3228
2018-08-12T06:10:00.570Z,3376
2018-08-12T06:10:41.034Z,3504
2018-08-12T06:11:21.475Z,3616
2018-08-12T06:12:01.959Z,3712
2018-08-12T06:12:42.814Z,3796
2018-08-12T06:13:23.260Z,3840
2018-08-12T06:14:03.859Z,3856
2018-08-12T06:14:44.356Z,3844
2018-08-12T06:15:24.836Z,3812
2018-08-12T06:16:05.429Z,3776
2018-08-12T06:16:45.862Z,3716
2018-08-12T06:17:29.984Z,3640
2018-08-12T06:18:10.480Z,3548
2018-08-12T06:18:51.021Z,3448
2018-08-12T06:19:31.395Z,3332
2018-08-12T06:20:11.848Z,3200
2018-08-12T06:20:52.354Z,3076
2018-08-12T06:21:32.902Z,2960
2018-08-12T06:22:13.317Z,2856
2018-08-12T06:22:53.830Z,2776
2018-08-12T06:23:34.316Z,2724
2018-08-12T06:24:14.809Z,2692
2018-08-12T06:24:55.295Z,2672
2018-08-12T06:25:35.834Z,2656
2018-08-12T06:26:16.276Z,2656
2018-08-12T06:26:56.792Z,2660
2018-08-12T06:27:37.283Z,2660
2018-08-12T06:28:17.793Z,2668
2018-08-12T06:28:58.274Z,2668
2018-08-12T06:29:38.780Z,2668
2018-08-12T06:30:19.283Z,2668
2018-08-12T06:30:59.845Z,2668
2018-08-12T06:31:40.323Z,2668
2018-08-12T06:32:20.834Z,2664
2018-08-12T06:33:01.370Z,2664
2018-08-12T06:33:41.849Z,2656
2018-08-12T06:34:22.366Z,2652
2018-08-12T06:35:02.871Z,2656
2018-08-12T06:35:43.428Z,2656
2018-08-12T06:36:23.862Z,2652
2018-08-12T06:37:04.404Z,2652
2018-08-12T06:37:44.874Z,2652
2018-08-12T06:38:25.363Z,2656
2018-08-12T06:39:05.841Z,2660
2018-08-12T06:39:46.419Z,2672
2018-08-12T06:40:26.842Z,2688
2018-08-12T06:41:07.324Z,2712
2018-08-12T06:41:47.828Z,2736
2018-08-12T06:42:28.335Z,2768
2018-08-12T06:43:08.804Z,2824
2018-08-12T06:43:49.346Z,2876
2018-08-12T06:44:29.848Z,2944
2018-08-12T06:45:10.397Z,3036
2018-08-12T06:45:50.895Z,3176
2018-08-12T06:46:31.403Z,3328
2018-08-12T06:47:11.929Z,3508
2018-08-12T06:47:52.436Z,3676
2018-08-12T06:48:32.949Z,3908
2018-08-12T06:49:13.444Z,4132
2018-08-12T06:49:53.954Z,4344
2018-08-12T06:50:34.511Z,4556
2018-08-12T06:51:14.930Z,4752
2018-08-12T06:51:55.498Z,4932
2018-08-12T06:52:35.934Z,5096
2018-08-12T06:53:16.494Z,5216
2018-08-12T06:53:57.018Z,5300
2018-08-12T06:54:37.474Z,5368
2018-08-12T06:55:17.972Z,5416
2018-08-12T06:55:58.486Z,5456
2018-08-12T06:56:38.981Z,5388
2018-08-12T06:57:19.477Z,5520
2018-08-12T06:57:59.980Z,5536
2018-08-12T06:58:40.466Z,5552
2018-08-12T06:59:20.948Z,5564
2018-08-12T07:00:01.418Z,5572
2018-08-12T07:00:41.936Z,5580
2018-08-12T07:01:22.385Z,5596
2018-08-12T07:02:02.914Z,5608
2018-08-12T07:02:43.424Z,5624
2018-08-12T07:03:23.917Z,5640
2018-08-12T07:04:04.382Z,5648
2018-08-12T07:04:44.876Z,5660
2018-08-12T07:05:25.385Z,5668
2018-08-12T07:06:05.879Z,5668
2018-08-12T07:06:46.428Z,5660
2018-08-12T07:07:26.912Z,5652
2018-08-12T07:08:07.371Z,5652
2018-08-12T07:08:47.903Z,5652
2018-08-12T07:09:28.357Z,5648
2018-08-12T07:10:08.875Z,5616
2018-08-12T07:10:49.327Z,5620
2018-08-12T07:11:29.830Z,5616
2018-08-12T07:12:10.361Z,5656
2018-08-12T07:12:50.810Z,5624
2018-08-12T07:13:31.325Z,5580
2018-08-12T07:14:11.862Z,5592
2018-08-12T07:14:52.310Z,5592
2018-08-12T07:15:32.813Z,5576
2018-08-12T07:16:13.335Z,5572
2018-08-12T07:16:53.862Z,5572
2018-08-12T07:17:34.354Z,5560
2018-08-12T07:18:14.916Z,5556
2018-08-12T07:18:55.360Z,5580
2018-08-12T07:19:35.848Z,5604
2018-08-12T07:20:16.343Z,5604
2018-08-12T07:20:57.010Z,5600
2018-08-12T07:21:37.535Z,5592
2018-08-12T07:22:18.058Z,5588
2018-08-12T07:22:58.524Z,5580
2018-08-12T07:23:39.071Z,5572
2018-08-12T07:24:19.555Z,5572
2018-08-12T07:25:00.031Z,5576
2018-08-12T07:25:40.541Z,5576
2018-08-12T07:26:21.069Z,5584
2018-08-12T07:27:01.542Z,5564
2018-08-12T07:27:42.071Z,5564
2018-08-12T07:28:22.506Z,5564
2018-08-12T07:29:02.991Z,5556
2018-08-12T07:29:43.443Z,5544
2018-08-12T07:30:23.964Z,5528
2018-08-12T07:31:04.444Z,5512
2018-08-12T07:31:44.989Z,5496
2018-08-12T07:32:25.504Z,5480
2018-08-12T07:33:05.929Z,5468
2018-08-12T07:33:46.441Z,5452
2018-08-12T07:34:26.925Z,5440
2018-08-12T07:35:07.432Z,5412
2018-08-12T07:35:47.947Z,5392
2018-08-12T07:36:28.429Z,5360
2018-08-12T07:37:08.981Z,5336
2018-08-12T07:37:49.450Z,5328
2018-08-12T07:38:29.935Z,5312
2018-08-12T07:39:10.457Z,5308
2018-08-12T07:39:50.976Z,5300
2018-08-12T07:52:38.508Z,4808
2018-08-12T07:53:19.074Z,4776
2018-08-12T07:53:59.587Z,4748
2018-08-12T07:54:40.132Z,4712
2018-08-12T07:55:20.636Z,4660
2018-08-12T07:56:01.179Z,4636
2018-08-12T07:56:41.721Z,4588
2018-08-12T07:57:22.206Z,4560
2018-08-12T07:58:02.752Z,4532
2018-08-12T07:58:43.336Z,4508
2018-08-12T07:59:23.898Z,4468
2018-08-12T08:00:04.374Z,4424
2018-08-12T08:00:44.906Z,4388
2018-08-12T08:01:25.502Z,4360
2018-08-12T08:02:05.933Z,4336
2018-08-12T08:02:46.446Z,4300
2018-08-12T08:03:26.951Z,4272
2018-08-12T08:04:07.440Z,4240
2018-08-12T08:04:47.952Z,4208
2018-08-12T08:05:28.436Z,4180
2018-08-12T08:06:09.067Z,4152
2018-08-12T08:06:49.547Z,4120
2018-08-12T08:07:29.986Z,4096
2018-08-12T08:08:10.460Z,4060
2018-08-12T08:08:50.964Z,4032
2018-08-12T08:09:31.547Z,3996
2018-08-12T08:10:11.992Z,3940
2018-08-12T08:10:52.498Z,3848
2018-08-12T08:11:33.059Z,3712
2018-08-12T08:12:13.550Z,3564
2018-08-12T08:12:53.998Z,3440
2018-08-12T08:13:34.507Z,3336
2018-08-12T08:14:15.064Z,3272
2018-08-12T08:14:55.552Z,3232
2018-08-12T08:15:36.066Z,3196
2018-08-12T08:16:16.580Z,3188
2018-08-12T08:16:57.099Z,3184
2018-08-12T08:17:37.635Z,3180
2018-08-12T08:18:18.159Z,3172
2018-08-12T08:18:58.655Z,3160
2018-08-12T08:19:39.202Z,3144
2018-08-12T08:20:19.804Z,3136
2018-08-12T08:21:00.214Z,3124
2018-08-12T08:21:40.767Z,3108
2018-08-12T08:22:21.270Z,3088
2018-08-12T08:23:01.789Z,3072
2018-08-12T08:23:42.252Z,3056
2018-08-12T08:24:23.655Z,3032
2018-08-12T08:25:04.102Z,3016
2018-08-12T08:25:44.754Z,3004
2018-08-12T08:26:25.112Z,2984
2018-08-12T08:27:05.991Z,2964
2018-08-12T08:27:46.559Z,2940
2018-08-12T08:28:27.068Z,2924
2018-08-12T08:29:07.591Z,2904
2018-08-12T08:29:48.196Z,2884
2018-08-12T08:30:28.698Z,2868
2018-08-12T08:31:09.242Z,2848
2018-08-12T08:31:49.964Z,2824
2018-08-12T08:32:30.267Z,2804
2018-08-12T08:33:10.792Z,2788
2018-08-12T08:33:51.381Z,2768
2018-08-12T08:34:31.916Z,2756
2018-08-12T08:35:12.473Z,2744
2018-08-12T08:35:53.017Z,2728
2018-08-12T08:36:33.490Z,2720
2018-08-12T08:37:14.002Z,2708
2018-08-12T08:37:54.625Z,2692
2018-08-12T08:38:35.078Z,2680
2018-08-12T08:39:15.589Z,2676
2018-08-12T08:39:56.156Z,2676
2018-08-12T08:40:36.650Z,2668
2018-08-12T08:41:17.115Z,2664
2018-08-12T08:41:57.595Z,2664
2018-08-12T08:42:38.117Z,2660
2018-08-12T08:43:19.151Z,2652
2018-08-12T08:43:59.239Z,2644
2018-08-12T08:44:39.661Z,2644
2018-08-12T08:45:20.187Z,2632
2018-08-12T08:46:00.631Z,2632
2018-08-12T08:46:41.143Z,2628
2018-08-12T08:47:21.656Z,2616
2018-08-12T08:48:02.824Z,2616
2018-08-12T08:48:43.535Z,2608
2018-08-12T08:49:24.507Z,2604
2018-08-12T08:50:04.975Z,2600
2018-08-12T08:50:45.500Z,2592
2018-08-12T08:51:25.973Z,2592
2018-08-12T08:52:06.461Z,2584
2018-08-12T08:52:47.002Z,2584
2018-08-12T08:53:27.487Z,2576
2018-08-12T08:54:08.041Z,2572
2018-08-12T08:54:49.264Z,2568
2018-08-12T08:55:30.078Z,2564
2018-08-12T08:56:10.702Z,2560
2018-08-12T08:56:51.111Z,2560
2018-08-12T08:57:31.750Z,2552
2018-08-12T08:58:12.261Z,2544
2018-08-12T08:58:52.696Z,2544
2018-08-12T08:59:33.270Z,2544
2018-08-12T09:00:13.794Z,2540
2018-08-12T09:00:54.392Z,2536
2018-08-12T09:01:35.043Z,2532
2018-08-12T09:02:15.438Z,2528
2018-08-12T09:02:56.066Z,2528
2018-08-12T09:03:36.543Z,2520
2018-08-12T09:04:17.025Z,2520
2018-08-12T09:04:57.606Z,2524
2018-08-12T09:05:38.043Z,2520
2018-08-12T09:06:18.625Z,2516
2018-08-12T09:06:59.157Z,2516
2018-08-12T09:07:39.646Z,2516
2018-08-12T09:08:20.300Z,2516
2018-08-12T09:09:00.935Z,2512
2018-08-12T09:09:41.219Z,2516
2018-08-12T09:10:21.730Z,2516
2018-08-12T09:11:02.254Z,2512
2018-08-12T09:11:42.702Z,2516
2018-08-12T09:12:23.381Z,2512
2018-08-12T09:13:03.843Z,2512
2018-08-12T09:13:44.350Z,2508
2018-08-12T09:14:24.887Z,2516
2018-08-12T09:15:05.441Z,2520
2018-08-12T09:15:45.920Z,2520
2018-08-12T09:16:26.466Z,2516
2018-08-12T09:17:06.937Z,2520
2018-08-12T09:17:47.443Z,2524
2018-08-12T09:18:27.909Z,2520
2018-08-12T09:19:08.384Z,2516
2018-08-12T09:19:48.869Z,2532
2018-08-12T09:20:29.427Z,2532
2018-08-12T09:21:09.911Z,2532
2018-08-12T09:21:50.412Z,2532
2018-08-12T09:22:30.938Z,2532
2018-08-12T09:23:11.449Z,2540
2018-08-12T09:23:51.996Z,2536
2018-08-12T09:24:32.508Z,2536
2018-08-12T09:25:13.515Z,2532
2018-08-12T09:25:54.298Z,2536
2018-08-12T09:26:42.564Z,2548
2018-08-12T09:27:21.722Z,2552
2018-08-12T09:28:02.905Z,2556
2018-08-12T09:28:44.732Z,2556
2018-08-12T09:29:25.734Z,2560
2018-08-12T09:30:06.901Z,2560
2018-08-12T09:30:47.464Z,2560
2018-08-12T09:31:27.934Z,2564
2018-08-12T09:32:08.518Z,2564
2018-08-12T09:32:48.991Z,2556
2018-08-12T09:33:29.488Z,2552
2018-08-12T09:34:10.038Z,2552
2018-08-12T09:34:50.479Z,2552
2018-08-12T09:35:31.052Z,2552
2018-08-12T09:36:11.601Z,2552
2018-08-12T09:36:52.098Z,2552
2018-08-12T09:37:32.612Z,2548
2018-08-12T09:38:13.076Z,2548
2018-08-12T09:38:53.678Z,2544
2018-08-12T09:39:34.181Z,2544
2018-08-12T09:40:14.745Z,2516
2018-08-12T09:40:55.256Z,2504
2018-08-12T09:41:35.739Z,2500
2018-08-12T09:42:16.222Z,2492
2018-08-12T09:42:56.794Z,2504
2018-08-12T09:43:37.259Z,2500
2018-08-12T09:44:17.749Z,2492
2018-08-12T09:44:58.402Z,2500